Terminal Aerodrome Forecast
Issued by NWS Cleveland, OH

Home | Current Version | Previous Version | Text Only | Print | Product List | Glossary On
Versions: 1 2 3 4 5 6 7 8 9 10 11 12 13 14 15 16 17 18 19
981
FTUS41 KCLE 191313 AAA
TAFYNG
TAF AMD
KYNG 191313Z 1913/2012 31010G20KT 5SM -SN OVC012
     FM191400 34010G20KT P6SM OVC012
     FM191700 32012G20KT P6SM OVC025
     FM200200 32010KT P6SM BKN035
     FM201000 32007KT P6SM SCT030=

USA.gov is the U.S. government's official web portal to all federal, state and local government web resources and services.